Wind From: 11-12-2017 04:25 Until: 16:00 warning for: Wind Level: Orange info button

Power and phone distribution networks may be disrupted for relatively long periods., Roofs and chimneys can be damaged. , Tree branches may break. , Vehicles can be deported. , Traffic may be disrupted, particularly on secondary roads in forest areas. Limit your trips. , Limit your speed in highway driving, especially if you drive a vehicle or hitch sensitive to wind. , Do not go for walks in forests or along the coast., In town, be vigilant against possible falling objects., Do not work on roofs and do not touch any electrical line fallen on the ground., Store or secure sensitive objects to wind or likely to be damaged., Always install power generators outside buildings. 


Meteo18 Weather Cam more information Meteo18 Weather Cam


Thunder radar more information blitzortung!


Rain radar more information rain snow radar


Visit our other weather sites:

Template documentation
and downloads

And another site



Weather Underground History page Text

Daily Summary for July 10, 2016 Units:  Metric    English   Both
« Previous Day
Next Day »
Daily Weekly Monthly Yearly Custom
  High: Low: Average:
Temperature: 33.0 °C 13.9 °C 24.1 °C
Dew Point: 18.6 °C 12.3 °C 15.6 °C
Humidity: 98 % 29 % 65 %
Wind Speed: 11.3 km/h 0.0 km/h 1 km/h
Wind Gust: 16.1 km/h - -
Wind:- - WSW
Pressure: 1017.2 hPa 1011.4 hPa -
Precipitation: 0.0 mm    
Historical Graphs
 
 
Tabular Data for July 10, 2016
Time Temperature Dew Point Pressure Wind Wind Speed Wind Gust Humidity Rainfall Rate (Hourly)
00:02 18.1 °C 16.3 °C 1017.2 hPa Calm     89 % 0.0 mm
00:07 18.0 °C 16.2 °C 1017.2 hPa Calm     89 % 0.0 mm
00:12 17.9 °C 16.1 °C 1017.2 hPa Calm     89 % 0.0 mm
00:17 17.8 °C 16.0 °C 1017.2 hPa Calm     89 % 0.0 mm
00:22 17.8 °C 16.0 °C 1017.2 hPa Calm     89 % 0.0 mm
00:27 17.7 °C 15.9 °C 1016.8 hPa Calm     89 % 0.0 mm
00:32 17.7 °C 16.0 °C 1016.8 hPa Calm     90 % 0.0 mm
00:42 17.7 °C 15.9 °C 1016.8 hPa Calm     89 % 0.0 mm
00:47 17.6 °C 15.9 °C 1016.8 hPa Calm     90 % 0.0 mm
00:52 17.5 °C 15.8 °C 1016.8 hPa Calm     90 % 0.0 mm
00:57 17.4 °C 15.7 °C 1016.8 hPa Calm     90 % 0.0 mm
01:02 17.4 °C 15.9 °C 1016.8 hPa Calm     91 % 0.0 mm
01:07 17.2 °C 15.7 °C 1016.5 hPa Calm     91 % 0.0 mm
01:12 17.1 °C 15.6 °C 1016.5 hPa Calm     91 % 0.0 mm
01:17 17.0 °C 15.5 °C 1016.5 hPa Calm     91 % 0.0 mm
01:22 16.9 °C 15.6 °C 1016.5 hPa Calm     92 % 0.0 mm
01:27 16.8 °C 15.5 °C 1016.5 hPa Calm     92 % 0.0 mm
01:42 16.8 °C 15.5 °C 1016.1 hPa Calm     92 % 0.0 mm
01:47 16.7 °C 15.4 °C 1016.1 hPa Calm     92 % 0.0 mm
01:52 16.6 °C 15.3 °C 1016.1 hPa Calm     92 % 0.0 mm
01:57 16.4 °C 15.1 °C 1016.1 hPa Calm     92 % 0.0 mm
02:02 16.4 °C 15.3 °C 1016.1 hPa Calm     93 % 0.0 mm
02:07 16.4 °C 15.3 °C 1016.1 hPa Calm     93 % 0.0 mm
02:12 16.4 °C 15.3 °C 1016.1 hPa Calm     93 % 0.0 mm
02:17 16.3 °C 15.2 °C 1016.1 hPa Calm     93 % 0.0 mm
02:22 16.3 °C 15.2 °C 1015.8 hPa Calm     93 % 0.0 mm
02:27 16.2 °C 15.1 °C 1015.8 hPa Calm     93 % 0.0 mm
02:32 16.2 °C 15.2 °C 1015.8 hPa Calm     94 % 0.0 mm
02:37 16.2 °C 15.2 °C 1015.8 hPa Calm     94 % 0.0 mm
02:42 16.1 °C 15.0 °C 1015.8 hPa Calm     93 % 0.0 mm
02:47 16.0 °C 15.0 °C 1015.8 hPa Calm     94 % 0.0 mm
02:52 15.9 °C 14.9 °C 1015.8 hPa Calm     94 % 0.0 mm
02:57 15.9 °C 14.9 °C 1015.8 hPa Calm     94 % 0.0 mm
03:02 15.9 °C 14.9 °C 1015.8 hPa Calm     94 % 0.0 mm
03:07 15.8 °C 14.8 °C 1015.5 hPa Calm     94 % 0.0 mm
03:12 15.8 °C 14.8 °C 1015.5 hPa Calm     94 % 0.0 mm
03:17 15.8 °C 15.0 °C 1015.5 hPa Calm     95 % 0.0 mm
03:22 15.8 °C 14.8 °C 1015.5 hPa Calm     94 % 0.0 mm
03:27 15.6 °C 14.6 °C 1015.5 hPa Calm     94 % 0.0 mm
03:32 15.5 °C 14.5 °C 1015.5 hPa Calm     94 % 0.0 mm
03:37 15.3 °C 14.3 °C 1015.5 hPa Calm     94 % 0.0 mm
03:42 15.3 °C 14.5 °C 1015.5 hPa Calm     95 % 0.0 mm
03:47 15.2 °C 14.4 °C 1015.5 hPa Calm     95 % 0.0 mm
03:52 15.2 °C 14.4 °C 1015.5 hPa Calm     95 % 0.0 mm
03:57 15.2 °C 14.4 °C 1015.1 hPa Calm     95 % 0.0 mm
04:02 15.1 °C 14.3 °C 1015.1 hPa Calm     95 % 0.0 mm
04:07 15.1 °C 14.3 °C 1015.1 hPa Calm     95 % 0.0 mm
04:12 15.0 °C 14.2 °C 1015.1 hPa Calm     95 % 0.0 mm
04:17 14.9 °C 14.1 °C 1015.1 hPa Calm     95 % 0.0 mm
04:22 14.9 °C 14.1 °C 1015.1 hPa Calm     95 % 0.0 mm
04:27 14.8 °C 14.0 °C 1015.1 hPa Calm     95 % 0.0 mm
04:32 14.7 °C 13.9 °C 1015.1 hPa Calm     95 % 0.0 mm
04:37 14.7 °C 13.9 °C 1015.1 hPa Calm     95 % 0.0 mm
04:42 14.7 °C 13.9 °C 1014.8 hPa Calm     95 % 0.0 mm
04:47 14.7 °C 14.1 °C 1014.8 hPa Calm     96 % 0.0 mm
04:52 14.6 °C 13.8 °C 1014.8 hPa Calm     95 % 0.0 mm
04:57 14.6 °C 13.8 °C 1014.8 hPa Calm     95 % 0.0 mm
05:02 14.6 °C 14.0 °C 1014.8 hPa Calm     96 % 0.0 mm
05:07 14.6 °C 14.0 °C 1014.8 hPa Calm     96 % 0.0 mm
05:12 14.4 °C 13.8 °C 1014.8 hPa Calm     96 % 0.0 mm
05:17 14.4 °C 13.8 °C 1014.8 hPa Calm     96 % 0.0 mm
05:22 14.5 °C 13.9 °C 1014.8 hPa Calm     96 % 0.0 mm
05:27 14.6 °C 14.0 °C 1014.8 hPa Calm     96 % 0.0 mm
05:32 14.6 °C 14.0 °C 1014.8 hPa Calm     96 % 0.0 mm
05:37 14.5 °C 13.9 °C 1014.8 hPa Calm     96 % 0.0 mm
05:42 14.4 °C 13.8 °C 1014.8 hPa Calm     96 % 0.0 mm
05:47 14.3 °C 13.7 °C 1014.4 hPa Calm     96 % 0.0 mm
05:52 14.2 °C 13.6 °C 1014.4 hPa Calm     96 % 0.0 mm
05:57 14.2 °C 13.6 °C 1014.4 hPa Calm     96 % 0.0 mm
06:02 14.2 °C 13.6 °C 1014.8 hPa Calm     96 % 0.0 mm
06:07 14.1 °C 13.5 °C 1014.8 hPa Calm     96 % 0.0 mm
06:12 14.1 °C 13.5 °C 1014.8 hPa Calm     96 % 0.0 mm
06:17 14.1 °C 13.5 °C 1014.4 hPa Calm     96 % 0.0 mm
06:22 14.0 °C 13.4 °C 1014.8 hPa Calm     96 % 0.0 mm
06:32 13.9 °C 13.3 °C 1014.4 hPa Calm     96 % 0.0 mm
06:37 13.9 °C 13.3 °C 1014.4 hPa Calm     96 % 0.0 mm
06:42 13.9 °C 13.3 °C 1014.4 hPa Calm     96 % 0.0 mm
06:47 13.9 °C 13.3 °C 1014.4 hPa Calm     96 % 0.0 mm
06:57 14.2 °C 13.7 °C 1014.8 hPa Calm     97 % 0.0 mm
07:02 14.2 °C 13.7 °C 1014.8 hPa Calm     97 % 0.0 mm
07:12 14.1 °C 13.6 °C 1014.8 hPa Calm     97 % 0.0 mm
07:17 14.2 °C 13.7 °C 1014.4 hPa Calm     97 % 0.0 mm
07:22 14.3 °C 13.8 °C 1014.8 hPa Calm     97 % 0.0 mm
07:32 14.7 °C 14.2 °C 1014.8 hPa Calm     97 % 0.0 mm
07:37 15.0 °C 14.5 °C 1014.8 hPa Calm     97 % 0.0 mm
07:42 15.2 °C 14.7 °C 1014.8 hPa Calm     97 % 0.0 mm
07:47 15.4 °C 14.9 °C 1014.8 hPa Calm     97 % 0.0 mm
07:52 15.7 °C 15.4 °C 1014.8 hPa Calm     98 % 0.0 mm
07:57 15.8 °C 15.5 °C 1014.8 hPa Calm     98 % 0.0 mm
08:02 16.1 °C 15.8 °C 1014.8 hPa Calm     98 % 0.0 mm
08:12 16.4 °C 16.1 °C 1014.8 hPa Calm     98 % 0.0 mm
08:17 16.5 °C 16.2 °C 1014.4 hPa Calm     98 % 0.0 mm
08:22 16.6 °C 16.3 °C 1014.4 hPa Calm     98 % 0.0 mm
08:32 16.8 °C 16.3 °C 1014.4 hPa Calm     97 % 0.0 mm
08:42 17.3 °C 17.0 °C 1014.4 hPa Calm     98 % 0.0 mm
08:47 17.4 °C 17.1 °C 1014.4 hPa Calm     98 % 0.0 mm
08:52 17.7 °C 17.2 °C 1014.4 hPa Calm     97 % 0.0 mm
08:57 18.3 °C 17.8 °C 1014.4 hPa Calm     97 % 0.0 mm
09:02 19.1 °C 17.8 °C 1014.4 hPa Calm     92 % 0.0 mm
09:12 20.6 °C 17.6 °C 1014.4 hPa Calm     83 % 0.0 mm
09:17 21.4 °C 18.0 °C 1014.4 hPa Calm     81 % 0.0 mm
09:22 22.2 °C 17.6 °C 1014.1 hPa Calm     75 % 0.0 mm
09:27 23.0 °C 18.3 °C 1014.4 hPa Calm     75 % 0.0 mm
09:32 23.7 °C 17.7 °C 1014.4 hPa Calm     69 % 0.0 mm
09:37 24.2 °C 18.2 °C 1014.1 hPa Calm     69 % 0.0 mm
09:42 24.9 °C 18.1 °C 1014.1 hPa Calm     66 % 0.0 mm
09:47 25.4 °C 18.3 °C 1014.1 hPa Calm     65 % 0.0 mm
09:52 25.8 °C 18.5 °C 1013.8 hPa Calm     64 % 0.0 mm
09:57 26.1 °C 18.5 °C 1014.1 hPa Calm     63 % 0.0 mm
10:02 26.4 °C 18.5 °C 1014.1 hPa Calm     62 % 0.0 mm
10:07 26.8 °C 18.6 °C 1013.8 hPa Calm     61 % 0.0 mm
10:12 27.1 °C 18.4 °C 1013.8 hPa Calm     59 % 0.0 mm
10:17 27.2 °C 18.5 °C 1013.8 hPa Calm     59 % 0.0 mm
10:22 27.4 °C 18.4 °C 1013.8 hPa Calm     58 % 0.0 mm
10:27 27.7 °C 17.8 °C 1013.8 hPa Calm     55 % 0.0 mm
10:32 27.8 °C 17.9 °C 1013.8 hPa Calm     55 % 0.0 mm
10:37 28.2 °C 18.6 °C 1013.8 hPa Calm     56 % 0.0 mm
10:42 28.3 °C 17.5 °C 1013.8 hPa Calm     52 % 0.0 mm
10:47 28.6 °C 18.4 °C 1013.8 hPa Calm     54 % 0.0 mm
10:52 28.8 °C 17.7 °C 1013.8 hPa Calm     51 % 0.0 mm
10:57 28.8 °C 18.3 °C 1013.8 hPa Calm     53 % 0.0 mm
11:02 28.9 °C 17.7 °C 1013.8 hPa Calm     51 % 0.0 mm
11:07 29.0 °C 17.5 °C 1013.8 hPa Calm     50 % 0.0 mm
11:12 28.9 °C 17.7 °C 1013.8 hPa Calm     51 % 0.0 mm
11:17 29.2 °C 18.0 °C 1013.8 hPa Calm     51 % 0.0 mm
11:22 29.7 °C 17.8 °C 1013.8 hPa Calm     49 % 0.0 mm
11:27 29.7 °C 17.5 °C 1013.8 hPa Calm     48 % 0.0 mm
11:32 29.8 °C 17.9 °C 1013.8 hPa Calm     49 % 0.0 mm
11:37 29.9 °C 18.0 °C 1013.8 hPa Calm     49 % 0.0 mm
11:42 30.1 °C 16.9 °C 1013.4 hPa Calm     45 % 0.0 mm
11:47 30.1 °C 17.5 °C 1013.4 hPa Calm     47 % 0.0 mm
11:52 30.3 °C 17.7 °C 1013.4 hPa Calm     47 % 0.0 mm
11:57 30.3 °C 17.4 °C 1013.4 hPa Calm     46 % 0.0 mm
12:02 30.4 °C 17.8 °C 1013.4 hPa Calm     47 % 0.0 mm
12:07 30.5 °C 17.6 °C 1013.4 hPa West 1.6 km/h   46 % 0.0 mm
12:12 30.5 °C 17.9 °C 1013.4 hPa SW 3.2 km/h 9.7 km/h 47 % 0.0 mm
12:17 30.4 °C 17.1 °C 1013.4 hPa West 3.2 km/h 9.7 km/h 45 % 0.0 mm
12:22 30.5 °C 17.9 °C 1013.4 hPa SW 4.8 km/h 8.0 km/h 47 % 0.0 mm
12:27 30.3 °C 17.4 °C 1013.4 hPa Calm   8.0 km/h 46 % 0.0 mm
12:32 30.7 °C 17.8 °C 1013.4 hPa Calm   8.0 km/h 46 % 0.0 mm
12:42 31.3 °C 17.6 °C 1013.4 hPa WSW 6.4 km/h 9.7 km/h 44 % 0.0 mm
12:52 31.1 °C 17.8 °C 1013.1 hPa Calm   9.7 km/h 45 % 0.0 mm
12:57 31.3 °C 17.6 °C 1013.1 hPa Calm   8.0 km/h 44 % 0.0 mm
13:02 31.2 °C 17.5 °C 1013.1 hPa Calm   9.7 km/h 44 % 0.0 mm
13:07 31.2 °C 16.4 °C 1013.1 hPa Calm   9.7 km/h 41 % 0.0 mm
13:12 31.4 °C 16.9 °C 1013.1 hPa Calm   11.3 km/h 42 % 0.0 mm
13:17 31.4 °C 18.4 °C 1013.1 hPa SW 1.6 km/h 11.3 km/h 46 % 0.0 mm
13:22 31.6 °C 18.2 °C 1013.1 hPa West 3.2 km/h 12.9 km/h 45 % 0.0 mm
13:27 31.5 °C 18.5 °C 1012.8 hPa WNW 1.6 km/h 12.9 km/h 46 % 0.0 mm
13:32 31.8 °C 16.9 °C 1012.8 hPa Calm   12.9 km/h 41 % 0.0 mm
13:37 32.1 °C 17.6 °C 1012.8 hPa Calm   4.8 km/h 42 % 0.0 mm
13:42 31.9 °C 17.4 °C 1012.8 hPa Calm   8.0 km/h 42 % 0.0 mm
13:47 31.8 °C 17.3 °C 1012.8 hPa SSW 3.2 km/h 9.7 km/h 42 % 0.0 mm
13:52 32.1 °C 17.2 °C 1012.8 hPa WSW 1.6 km/h 9.7 km/h 41 % 0.0 mm
13:57 32.1 °C 16.8 °C 1012.8 hPa WSW 11.3 km/h 11.3 km/h 40 % 0.0 mm
14:02 31.8 °C 17.3 °C 1012.8 hPa WSW 1.6 km/h 11.3 km/h 42 % 0.0 mm
14:07 31.8 °C 17.3 °C 1012.8 hPa SW 4.8 km/h 14.5 km/h 42 % 0.0 mm
14:12 31.7 °C 17.2 °C 1012.8 hPa SSW 3.2 km/h 14.5 km/h 42 % 0.0 mm
14:17 32.1 °C 17.9 °C 1012.4 hPa SW 8.0 km/h 14.5 km/h 43 % 0.0 mm
14:22 32.0 °C 17.5 °C 1012.4 hPa Calm   11.3 km/h 42 % 0.0 mm
14:27 32.2 °C 16.9 °C 1012.4 hPa WSW 1.6 km/h 9.7 km/h 40 % 0.0 mm
14:32 32.1 °C 16.8 °C 1012.4 hPa SW 3.2 km/h 11.3 km/h 40 % 0.0 mm
14:37 32.3 °C 17.0 °C 1012.4 hPa Calm   11.3 km/h 40 % 0.0 mm
14:42 32.3 °C 17.0 °C 1012.4 hPa East 3.2 km/h 11.3 km/h 40 % 0.0 mm
14:47 32.3 °C 16.2 °C 1012.4 hPa West 3.2 km/h 9.7 km/h 38 % 0.0 mm
14:52 32.3 °C 15.8 °C 1012.4 hPa WSW 4.8 km/h 9.7 km/h 37 % 0.0 mm
14:57 32.5 °C 15.9 °C 1012.4 hPa West 6.4 km/h 11.3 km/h 37 % 0.0 mm
15:07 32.2 °C 14.3 °C 1012.4 hPa West 4.8 km/h 12.9 km/h 34 % 0.0 mm
15:12 32.4 °C 15.8 °C 1012.4 hPa WSW 3.2 km/h 12.9 km/h 37 % 0.0 mm
15:17 32.3 °C 15.3 °C 1012.4 hPa WSW 4.8 km/h 12.9 km/h 36 % 0.0 mm
15:22 32.4 °C 15.8 °C 1012.1 hPa NE 3.2 km/h 9.7 km/h 37 % 0.0 mm
15:27 32.6 °C 16.4 °C 1012.4 hPa WSW 4.8 km/h 9.7 km/h 38 % 0.0 mm
15:32 32.7 °C 16.5 °C 1012.4 hPa West 1.6 km/h 9.7 km/h 38 % 0.0 mm
15:37 32.6 °C 15.6 °C 1012.1 hPa WSW 4.8 km/h 12.9 km/h 36 % 0.0 mm
15:42 32.9 °C 15.0 °C 1012.4 hPa West 1.6 km/h 12.9 km/h 34 % 0.0 mm
15:52 33.0 °C 15.0 °C 1012.1 hPa NW 8.0 km/h 11.3 km/h 34 % 0.0 mm
15:57 32.8 °C 14.4 °C 1012.4 hPa Calm   12.9 km/h 33 % 0.0 mm
16:02 32.9 °C 14.5 °C 1012.4 hPa WSW 8.0 km/h 12.9 km/h 33 % 0.0 mm
16:07 32.9 °C 14.5 °C 1012.1 hPa Calm   12.9 km/h 33 % 0.0 mm
16:12 32.6 °C 13.8 °C 1012.1 hPa Calm   12.9 km/h 32 % 0.0 mm
16:17 32.8 °C 13.4 °C 1012.1 hPa WSW 3.2 km/h 14.5 km/h 31 % 0.0 mm
16:22 32.7 °C 12.3 °C 1012.4 hPa WSW 3.2 km/h 14.5 km/h 29 % 0.0 mm
16:27 32.9 °C 12.5 °C 1012.1 hPa Calm   12.9 km/h 29 % 0.0 mm
16:32 33.0 °C 13.6 °C 1012.1 hPa Calm   12.9 km/h 31 % 0.0 mm
16:37 32.9 °C 12.5 °C 1012.1 hPa West 1.6 km/h 9.7 km/h 29 % 0.0 mm
16:42 32.8 °C 13.9 °C 1012.1 hPa Calm   9.7 km/h 32 % 0.0 mm
16:47 32.7 °C 13.4 °C 1012.1 hPa Calm   11.3 km/h 31 % 0.0 mm
16:52 32.9 °C 14.0 °C 1012.1 hPa Calm   11.3 km/h 32 % 0.0 mm
16:57 32.9 °C 14.5 °C 1012.1 hPa West 3.2 km/h 9.7 km/h 33 % 0.0 mm
17:02 32.8 °C 14.4 °C 1012.1 hPa WSW 1.6 km/h 11.3 km/h 33 % 0.0 mm
17:07 32.9 °C 14.5 °C 1012.1 hPa West 1.6 km/h 11.3 km/h 33 % 0.0 mm
17:12 32.9 °C 13.5 °C 1012.1 hPa WNW 4.8 km/h 11.3 km/h 31 % 0.0 mm
17:17 32.8 °C 14.9 °C 1012.1 hPa West 6.4 km/h 9.7 km/h 34 % 0.0 mm
17:22 32.2 °C 14.8 °C 1012.1 hPa West 1.6 km/h 11.3 km/h 35 % 0.0 mm
17:27 32.1 °C 14.3 °C 1012.1 hPa WSW 1.6 km/h 12.9 km/h 34 % 0.0 mm
17:32 32.0 °C 14.2 °C 1012.1 hPa Calm   12.9 km/h 34 % 0.0 mm
17:37 31.6 °C 14.3 °C 1011.7 hPa West 1.6 km/h 12.9 km/h 35 % 0.0 mm
17:42 31.1 °C 13.8 °C 1012.1 hPa Calm   9.7 km/h 35 % 0.0 mm
17:47 31.0 °C 14.2 °C 1012.1 hPa Calm   8.0 km/h 36 % 0.0 mm
17:52 31.2 °C 13.9 °C 1012.1 hPa West 1.6 km/h 8.0 km/h 35 % 0.0 mm
17:57 31.6 °C 13.8 °C 1012.1 hPa WSW 6.4 km/h 9.7 km/h 34 % 0.0 mm
18:02 31.9 °C 14.1 °C 1012.1 hPa SSW 1.6 km/h 11.3 km/h 34 % 0.0 mm
18:07 31.9 °C 14.1 °C 1012.1 hPa Calm   11.3 km/h 34 % 0.0 mm
18:12 31.8 °C 14.4 °C 1012.1 hPa Calm   11.3 km/h 35 % 0.0 mm
18:17 31.8 °C 14.0 °C 1011.7 hPa Calm   8.0 km/h 34 % 0.0 mm
18:22 31.8 °C 14.0 °C 1011.7 hPa Calm   9.7 km/h 34 % 0.0 mm
18:27 31.3 °C 14.0 °C 1011.7 hPa WSW 3.2 km/h 9.7 km/h 35 % 0.0 mm
18:32 31.1 °C 13.8 °C 1011.7 hPa NNE 8.0 km/h 9.7 km/h 35 % 0.0 mm
18:42 31.4 °C 14.5 °C 1011.7 hPa WSW 4.8 km/h 11.3 km/h 36 % 0.0 mm
18:47 31.3 °C 14.4 °C 1011.7 hPa WSW 3.2 km/h 11.3 km/h 36 % 0.0 mm
18:52 31.3 °C 14.4 °C 1011.7 hPa WSW 1.6 km/h 9.7 km/h 36 % 0.0 mm
18:57 31.0 °C 15.0 °C 1011.7 hPa WSW 4.8 km/h 9.7 km/h 38 % 0.0 mm
19:02 30.7 °C 13.9 °C 1011.7 hPa WNW 4.8 km/h 8.0 km/h 36 % 0.0 mm
19:07 30.4 °C 14.5 °C 1011.7 hPa WSW 1.6 km/h 9.7 km/h 38 % 0.0 mm
19:12 30.2 °C 14.3 °C 1011.7 hPa WSW 3.2 km/h 9.7 km/h 38 % 0.0 mm
19:17 30.2 °C 14.7 °C 1011.7 hPa SW 3.2 km/h 9.7 km/h 39 % 0.0 mm
19:22 30.1 °C 14.6 °C 1011.7 hPa WSW 11.3 km/h 11.3 km/h 39 % 0.0 mm
19:27 30.0 °C 14.5 °C 1011.7 hPa West 4.8 km/h 12.9 km/h 39 % 0.0 mm
19:32 29.9 °C 14.4 °C 1011.7 hPa West 1.6 km/h 12.9 km/h 39 % 0.0 mm
19:37 29.8 °C 15.5 °C 1011.7 hPa Calm   12.9 km/h 42 % 0.0 mm
19:42 29.7 °C 14.3 °C 1011.7 hPa SW 4.8 km/h 12.9 km/h 39 % 0.0 mm
19:47 29.6 °C 15.0 °C 1011.7 hPa WSW 6.4 km/h 16.1 km/h 41 % 0.0 mm
19:52 29.5 °C 14.9 °C 1011.7 hPa WSW 4.8 km/h 16.1 km/h 41 % 0.0 mm
19:57 29.3 °C 14.7 °C 1011.7 hPa SW 3.2 km/h 16.1 km/h 41 % 0.0 mm
20:02 29.1 °C 14.9 °C 1011.7 hPa West 3.2 km/h 9.7 km/h 42 % 0.0 mm
20:07 28.9 °C 14.7 °C 1011.7 hPa WSW 3.2 km/h 9.7 km/h 42 % 0.0 mm
20:12 28.7 °C 14.9 °C 1011.7 hPa SW 3.2 km/h 9.7 km/h 43 % 0.0 mm
20:17 28.6 °C 15.2 °C 1011.7 hPa WSW 1.6 km/h 11.3 km/h 44 % 0.0 mm
20:22 28.4 °C 15.3 °C 1011.7 hPa WSW 3.2 km/h 11.3 km/h 45 % 0.0 mm
20:27 28.2 °C 15.5 °C 1011.7 hPa WSW 1.6 km/h 11.3 km/h 46 % 0.0 mm
20:32 28.1 °C 15.7 °C 1011.4 hPa WSW 1.6 km/h 6.4 km/h 47 % 0.0 mm
20:37 27.9 °C 15.5 °C 1011.4 hPa West 8.0 km/h 8.0 km/h 47 % 0.0 mm
20:42 27.8 °C 15.5 °C 1011.4 hPa SW 1.6 km/h 8.0 km/h 47 % 0.0 mm
20:47 27.7 °C 15.7 °C 1011.4 hPa Calm   8.0 km/h 48 % 0.0 mm
20:52 27.4 °C 16.1 °C 1011.4 hPa Calm   8.0 km/h 50 % 0.0 mm
20:57 27.2 °C 15.9 °C 1011.4 hPa West 1.6 km/h 6.4 km/h 50 % 0.0 mm
21:02 27.0 °C 16.0 °C 1011.7 hPa Calm   6.4 km/h 51 % 0.0 mm
21:07 26.8 °C 16.1 °C 1011.7 hPa WSW 1.6 km/h 6.4 km/h 52 % 0.0 mm
21:12 26.8 °C 16.1 °C 1011.7 hPa SW 1.6 km/h 6.4 km/h 52 % 0.0 mm
21:17 26.7 °C 16.0 °C 1011.7 hPa Calm   6.4 km/h 52 % 0.0 mm
21:22 26.6 °C 16.2 °C 1011.7 hPa WSW 1.6 km/h 6.4 km/h 53 % 0.0 mm
21:27 26.4 °C 16.3 °C 1011.7 hPa Calm   4.8 km/h 54 % 0.0 mm
21:32 26.3 °C 16.0 °C 1011.7 hPa Calm   4.8 km/h 53 % 0.0 mm
21:37 26.2 °C 16.2 °C 1011.7 hPa Calm   4.8 km/h 54 % 0.0 mm
21:42 26.0 °C 16.3 °C 1011.7 hPa Calm   4.8 km/h 55 % 0.0 mm
21:47 25.8 °C 16.1 °C 1011.7 hPa Calm   4.8 km/h 55 % 0.0 mm
21:52 25.6 °C 16.2 °C 1011.7 hPa Calm   3.2 km/h 56 % 0.0 mm
21:57 25.4 °C 16.3 °C 1012.1 hPa Calm   3.2 km/h 57 % 0.0 mm
22:02 25.2 °C 16.3 °C 1012.1 hPa Calm   3.2 km/h 58 % 0.0 mm
22:07 24.9 °C 16.6 °C 1012.1 hPa Calm     60 % 0.0 mm
22:12 24.5 °C 16.5 °C 1012.1 hPa Calm     61 % 0.0 mm
22:17 24.1 °C 16.6 °C 1012.1 hPa Calm     63 % 0.0 mm
22:22 23.7 °C 16.5 °C 1012.4 hPa Calm     64 % 0.0 mm
22:27 23.3 °C 16.6 °C 1012.4 hPa Calm     66 % 0.0 mm
22:32 22.9 °C 16.7 °C 1012.4 hPa Calm     68 % 0.0 mm
22:37 22.6 °C 16.4 °C 1012.4 hPa Calm     68 % 0.0 mm
22:42 22.5 °C 16.5 °C 1012.8 hPa Calm     69 % 0.0 mm
22:47 22.4 °C 16.4 °C 1012.8 hPa Calm     69 % 0.0 mm
22:52 22.3 °C 16.6 °C 1012.8 hPa Calm     70 % 0.0 mm
22:57 22.2 °C 16.5 °C 1012.8 hPa Calm     70 % 0.0 mm
23:02 22.1 °C 16.4 °C 1012.4 hPa Calm     70 % 0.0 mm
23:07 21.9 °C 16.4 °C 1012.8 hPa Calm     71 % 0.0 mm
23:12 21.8 °C 16.5 °C 1012.4 hPa Calm     72 % 0.0 mm
23:17 21.7 °C 16.4 °C 1012.8 hPa Calm     72 % 0.0 mm
23:22 21.5 °C 16.5 °C 1012.8 hPa Calm     73 % 0.0 mm
23:27 21.2 °C 16.4 °C 1012.8 hPa Calm     74 % 0.0 mm
23:32 21.1 °C 16.3 °C 1012.8 hPa Calm     74 % 0.0 mm
23:37 21.2 °C 15.9 °C 1012.8 hPa Calm     72 % 0.0 mm
23:42 21.4 °C 15.5 °C 1012.8 hPa Calm   1.6 km/h 69 % 0.0 mm
23:47 21.7 °C 15.3 °C 1012.8 hPa Calm   1.6 km/h 67 % 0.0 mm
23:52 21.7 °C 15.3 °C 1012.8 hPa Calm   1.6 km/h 67 % 0.0 mm
23:57 21.7 °C 15.1 °C 1012.8 hPa Calm   1.6 km/h 66 % 0.0 mm
Meteo18
Compliments of Weather Underground - 4 mb

Script developed by  Jim McMurry - jmcmurry@mwt.net Adapted for the template by  Wim van der Kuil - Leuven-Template.eu

You find our weather info also at:

European Weather Network

Weather Underground

Equipment we use:

Weather-station
Davis Vue

Weather-program
Meteohub

Weather-server
Raspberry PI 2 B+

Provider
1 and 1

Davis Vue

Meteohub

Raspberry PI 2 B+

1 and 1